TAF Flughafenprognosen

Nürnberg TAF, ausgegeben So 28.11. 18:00

TAF EDDN 281700Z 2818/2918 28003KT 9999 FEW008 BKN020 PROB30 TEMPO 2818/2821 3000 -SHSN BKN008 BKN015TCU PROB40 TEMPO 2821/2911 BKN012 PROB30 TEMPO 2902/2909 3000 -SHSN BKN007 BKN012TCU BECMG 2908/2910 28008KT BECMG 2913/2915 BKN012 PROB40 TEMPO 2913/2918 2500 -SHSN BKN007 BKN012TCU
GültigkeitVonBisWind in Beaufort
(Knoten)
Wolken
(Meter über Grund)
Sichtweite
(Meter)
Wettererscheinung
Grundvorhersage So 28.11. 19:00 Mo 29.11. 19:00 W 2 (3) Stark bewölkt (610)
Leicht bewölkt (240)
>= 10000  
Vorübergehend
(Wahrscheinlichkeit 30 %)
So 28.11. 19:00 So 28.11. 22:00   Stark bewölkt (460)
Stark bewölkt (240)
3000 Schnee-Schauer (schwach)
Vorübergehend
(Wahrscheinlichkeit 40 %)
So 28.11. 22:00 Mo 29.11. 12:00   Stark bewölkt (370)    
Vorübergehend
(Wahrscheinlichkeit 30 %)
Mo 29.11. 03:00 Mo 29.11. 10:00   Stark bewölkt (370)
Stark bewölkt (210)
3000 Schnee-Schauer (schwach)
Übergang zu Mo 29.11. 09:00 Mo 29.11. 11:00 W 3 (8)      
Übergang zu Mo 29.11. 14:00 Mo 29.11. 16:00   Stark bewölkt (370)    
Vorübergehend
(Wahrscheinlichkeit 40 %)
Mo 29.11. 14:00 Mo 29.11. 19:00   Stark bewölkt (370)
Stark bewölkt (210)
2500 Schnee-Schauer (schwach)

 

Hof TAF, ausgegeben So 28.11. 18:00

TAF EDQM 281700Z 2818/2903 VRB03KT 9999 SCT010 PROB40 TEMPO 2818/2903 2000 -SHSN BKN007TCU PROB30 TEMPO 2822/2903 BKN003
GültigkeitVonBisWind in Beaufort
(Knoten)
Wolken
(Meter über Grund)
Sichtweite
(Meter)
Wettererscheinung
Grundvorhersage So 28.11. 19:00 Mo 29.11. 04:00 Uml 2 (3) Wolkig (300) >= 10000  
Vorübergehend
(Wahrscheinlichkeit 40 %)
So 28.11. 19:00 Mo 29.11. 04:00   Stark bewölkt (210) 2000 Schnee-Schauer (schwach)
Vorübergehend
(Wahrscheinlichkeit 30 %)
So 28.11. 23:00 Mo 29.11. 04:00   Stark bewölkt (91)    

 

Erfurt-Bindersleben TAF, ausgegeben So 28.11. 18:00

TAF EDDE 281700Z 2818/2918 26004KT 9999 FEW015 BKN030 PROB30 TEMPO 2818/2910 3500 -SHSN BKN012TCU BECMG 2900/2902 28009KT
GültigkeitVonBisWind in Beaufort
(Knoten)
Wolken
(Meter über Grund)
Sichtweite
(Meter)
Wettererscheinung
Grundvorhersage So 28.11. 19:00 Mo 29.11. 19:00 W 2 (4) Stark bewölkt (910)
Leicht bewölkt (460)
>= 10000  
Vorübergehend
(Wahrscheinlichkeit 30 %)
So 28.11. 19:00 Mo 29.11. 11:00   Stark bewölkt (370) 3500 Schnee-Schauer (schwach)
Übergang zu Mo 29.11. 01:00 Mo 29.11. 03:00 W 3 (9)      

 

Augsburg TAF, ausgegeben So 28.11. 18:00

TAF EDMA 281700Z 2818/2903 13003KT 9999 BKN020 TEMPO 2818/2903 2000 -SHSN SCT008 BKN012TCU
GültigkeitVonBisWind in Beaufort
(Knoten)
Wolken
(Meter über Grund)
Sichtweite
(Meter)
Wettererscheinung
Grundvorhersage So 28.11. 19:00 Mo 29.11. 04:00 SO 2 (3) Stark bewölkt (610) >= 10000  
Vorübergehend So 28.11. 19:00 Mo 29.11. 04:00   Stark bewölkt (370)
Wolkig (240)
2000 Schnee-Schauer (schwach)

 

Frankfurt TAF, ausgegeben So 28.11. 18:00

TAF EDDF 281700Z 2818/2924 22003KT 9999 SCT025 BKN040 BECMG 2909/2912 26009KT TEMPO 2912/2918 4000 -SHRASN BKN014TCU BECMG 2918/2920 24004KT PROB30 TEMPO 2921/2924 3000 -SHSNRA BKN014TCU
GültigkeitVonBisWind in Beaufort
(Knoten)
Wolken
(Meter über Grund)
Sichtweite
(Meter)
Wettererscheinung
Grundvorhersage So 28.11. 19:00 Di 30.11. 01:00 SW 2 (3) Stark bewölkt (1200)
Wolkig (760)
>= 10000  
Übergang zu Mo 29.11. 10:00 Mo 29.11. 13:00 W 3 (9)      
Vorübergehend Mo 29.11. 13:00 Mo 29.11. 19:00   Stark bewölkt (430) 4000 Regen/Schnee-Schauer (schwach)
Übergang zu Mo 29.11. 19:00 Mo 29.11. 21:00 WSW 2 (4)      
Vorübergehend
(Wahrscheinlichkeit 30 %)
Mo 29.11. 22:00 Di 30.11. 01:00   Stark bewölkt (430) 3000 Schnee/Regen-Schauer (schwach)

 

Stuttgart TAF, ausgegeben So 28.11. 20:50

TAF AMD EDDS 281950Z 2819/2918 VRB03KT 9999 SCT005 BKN015 TEMPO 2820/2823 2000 SHSN BKN005 BKN012TCU TEMPO 2823/2907 3000 -SN BKN008 BECMG 2907/2910 29009KT TEMPO 2914/2918 4000 -SHSN SCT015TCU
GültigkeitVonBisWind in Beaufort
(Knoten)
Wolken
(Meter über Grund)
Sichtweite
(Meter)
Wettererscheinung
Grundvorhersage So 28.11. 20:00 Mo 29.11. 19:00 Uml 2 (3) Stark bewölkt (460)
Wolkig (150)
>= 10000  
Vorübergehend So 28.11. 21:00 Mo 29.11. 00:00   Stark bewölkt (370)
Stark bewölkt (150)
2000 Schnee-Schauer
Vorübergehend Mo 29.11. 00:00 Mo 29.11. 08:00   Stark bewölkt (240) 3000 Schneefall (schwach)
Übergang zu Mo 29.11. 08:00 Mo 29.11. 11:00 WNW 3 (9)      
Vorübergehend Mo 29.11. 15:00 Mo 29.11. 19:00   Wolkig (460) 4000 Schnee-Schauer (schwach)

 

München TAF, ausgegeben So 28.11. 18:00

TAF EDDM 281700Z 2818/2924 27005KT 9999 FEW006 BKN020 PROB40 TEMPO 2818/2912 2500 -SHSN BKN006 BKN012TCU BECMG 2907/2909 28010KT PROB40 TEMPO 2920/2924 26015G25KT 2000 -SHSN BKN006 BKN012TCU
GültigkeitVonBisWind in Beaufort
(Knoten)
Wolken
(Meter über Grund)
Sichtweite
(Meter)
Wettererscheinung
Grundvorhersage So 28.11. 19:00 Di 30.11. 01:00 W 2 (5) Stark bewölkt (610)
Leicht bewölkt (180)
>= 10000  
Vorübergehend
(Wahrscheinlichkeit 40 %)
So 28.11. 19:00 Mo 29.11. 13:00   Stark bewölkt (370)
Stark bewölkt (180)
2500 Schnee-Schauer (schwach)
Übergang zu Mo 29.11. 08:00 Mo 29.11. 10:00 W 3 (10)      
Vorübergehend
(Wahrscheinlichkeit 40 %)
Mo 29.11. 21:00 Di 30.11. 01:00 W 4 (15) - 6 (25) Stark bewölkt (370)
Stark bewölkt (180)
2000 Schnee-Schauer (schwach)